createdAt,value
2023-03-16T00:02:24.345Z,15.73
2023-03-16T00:06:27.267Z,13.60
2023-03-16T00:10:30.889Z,14.20
2023-03-16T00:14:35.660Z,21.80
2023-03-16T00:18:41.100Z,41.30
2023-03-16T00:22:44.369Z,17.27
2023-03-16T00:26:47.760Z,52.50
2023-03-16T00:30:50.640Z,85.33
2023-03-16T00:34:58.211Z,21.83
2023-03-16T00:39:05.254Z,19.13
2023-03-16T00:43:08.145Z,23.20
2023-03-16T00:47:14.348Z,29.80
2023-03-16T00:51:24.498Z,24.23
2023-03-16T00:55:30.567Z,25.30
2023-03-16T00:59:36.727Z,24.33
2023-03-16T01:03:42.255Z,27.07
2023-03-16T01:07:46.910Z,24.00
2023-03-16T01:11:53.591Z,22.63
2023-03-16T01:15:56.735Z,23.57
2023-03-16T01:20:00.868Z,21.97
2023-03-16T01:24:05.649Z,18.27
2023-03-16T01:28:08.795Z,20.77
2023-03-16T01:32:12.180Z,16.80
2023-03-16T01:36:17.548Z,16.07
2023-03-16T01:40:22.448Z,15.30
2023-03-16T01:44:30.655Z,15.40
2023-03-16T01:48:37.410Z,21.13
2023-03-16T01:52:44.056Z,18.53
2023-03-16T01:56:58.684Z,14.03
2023-03-16T02:01:02.246Z,13.37
2023-03-16T02:05:13.981Z,16.23
2023-03-16T02:09:20.968Z,14.43
2023-03-16T02:13:31.592Z,12.87
2023-03-16T02:17:39.608Z,12.70
2023-03-16T02:21:54.522Z,15.50
2023-03-16T02:26:07.721Z,17.77
2023-03-16T02:30:17.276Z,15.13
2023-03-16T02:34:25.605Z,17.10
2023-03-16T02:38:33.451Z,23.67
2023-03-16T02:42:37.046Z,16.83
2023-03-16T02:46:43.640Z,16.20
2023-03-16T02:50:50.934Z,17.43
2023-03-16T02:54:54.350Z,38.30
2023-03-16T02:58:58.270Z,39.77
2023-03-16T03:03:03.694Z,63.70
2023-03-16T03:07:07.013Z,43.13
2023-03-16T03:11:12.428Z,63.03
2023-03-16T03:15:17.161Z,42.23
2023-03-16T03:19:25.103Z,69.50
2023-03-16T03:23:35.049Z,65.53
2023-03-16T03:27:41.310Z,68.17
2023-03-16T03:31:44.370Z,77.60
2023-03-16T03:35:48.959Z,62.57
2023-03-16T03:39:53.488Z,47.03
2023-03-16T03:43:58.813Z,80.77
2023-03-16T03:48:01.858Z,83.07
2023-03-16T03:52:06.902Z,54.07
2023-03-16T03:56:10.170Z,76.47
2023-03-16T04:00:21.614Z,108.77
2023-03-16T04:04:25.414Z,51.33
2023-03-16T04:08:30.203Z,81.33
2023-03-16T04:12:35.062Z,55.50
2023-03-16T04:16:39.767Z,77.00
2023-03-16T04:20:45.836Z,63.90
2023-03-16T04:24:52.745Z,71.57
2023-03-16T04:28:55.778Z,73.83
2023-03-16T04:32:58.869Z,148.20
2023-03-16T04:37:02.384Z,134.67
2023-03-16T04:41:09.004Z,97.97
2023-03-16T04:45:13.158Z,103.00
2023-03-16T04:49:16.733Z,70.50
2023-03-16T04:53:19.786Z,55.73
2023-03-16T04:57:24.366Z,50.47
2023-03-16T05:01:28.287Z,102.17
2023-03-16T05:05:31.829Z,102.23
2023-03-16T05:09:35.021Z,40.63
2023-03-16T05:13:42.140Z,37.93
2023-03-16T05:17:46.796Z,32.27
2023-03-16T05:21:51.616Z,29.40
2023-03-16T05:26:00.069Z,61.97
2023-03-16T05:30:04.848Z,44.97
2023-03-16T05:34:10.524Z,71.37
2023-03-16T05:38:13.933Z,117.23
2023-03-16T05:42:23.012Z,64.43
2023-03-16T05:46:29.065Z,38.50
2023-03-16T05:50:32.393Z,146.80
2023-03-16T05:54:35.486Z,90.33
2023-03-16T05:58:39.953Z,135.87
2023-03-16T06:02:49.919Z,76.03
2023-03-16T06:06:53.307Z,64.63
2023-03-16T06:10:57.583Z,41.50
2023-03-16T06:15:01.026Z,64.27
2023-03-16T06:19:05.483Z,41.70
2023-03-16T06:23:10.593Z,46.83
2023-03-16T06:27:14.234Z,52.37
2023-03-16T06:31:17.977Z,65.40
2023-03-16T06:35:24.412Z,94.77
2023-03-16T06:39:27.472Z,67.63
2023-03-16T06:43:33.269Z,59.03
2023-03-16T06:47:37.714Z,49.53
2023-03-16T06:51:42.759Z,57.57
2023-03-16T06:55:45.838Z,51.83
2023-03-16T06:59:49.963Z,28.53
2023-03-16T07:03:55.611Z,30.40
2023-03-16T07:08:05.004Z,45.33
2023-03-16T07:12:08.362Z,36.43
2023-03-16T07:16:11.549Z,34.20
2023-03-16T07:20:17.722Z,26.57
2023-03-16T07:24:23.817Z,58.83
2023-03-16T07:28:27.008Z,38.67
2023-03-16T07:32:33.414Z,30.60
2023-03-16T07:36:36.663Z,19.40
2023-03-16T07:40:43.414Z,28.20
2023-03-16T07:44:51.664Z,34.63
2023-03-16T07:48:59.376Z,27.13
2023-03-16T07:53:03.085Z,21.63
2023-03-16T07:57:09.526Z,27.07
2023-03-16T08:01:12.728Z,29.13
2023-03-16T08:05:19.124Z,25.43
2023-03-16T08:09:22.557Z,25.83
2023-03-16T08:13:30.126Z,28.70
2023-03-16T08:17:37.838Z,27.87
2023-03-16T08:22:01.197Z,29.60
2023-03-16T08:26:08.834Z,25.43
2023-03-16T08:30:15.116Z,22.93
2023-03-16T08:34:20.388Z,21.20
2023-03-16T08:38:23.509Z,24.63
2023-03-16T08:42:26.478Z,19.90
2023-03-16T08:46:31.991Z,24.27
2023-03-16T08:50:36.730Z,27.27
2023-03-16T08:54:59.749Z,21.80
2023-03-16T08:59:06.257Z,19.00
2023-03-16T09:03:14.221Z,21.37
2023-03-16T09:07:21.399Z,17.47
2023-03-16T09:11:28.943Z,20.20
2023-03-16T09:15:34.769Z,18.53
2023-03-16T09:19:51.044Z,16.40
2023-03-16T09:23:56.349Z,17.93
2023-03-16T09:28:01.273Z,19.83
2023-03-16T09:32:05.412Z,16.10
2023-03-16T09:36:11.540Z,19.33
2023-03-16T09:40:23.254Z,17.00
2023-03-16T09:44:38.221Z,17.17
2023-03-16T09:48:43.181Z,18.83
2023-03-16T09:52:55.487Z,18.57
2023-03-16T09:56:59.625Z,17.70
2023-03-16T10:01:11.308Z,19.27
2023-03-16T10:05:21.807Z,18.10
2023-03-16T10:09:35.213Z,13.57
2023-03-16T10:13:43.311Z,17.93
2023-03-16T10:17:50.894Z,17.40
2023-03-16T10:21:58.512Z,34.13
2023-03-16T10:26:14.156Z,16.80
2023-03-16T10:30:26.043Z,20.70
2023-03-16T10:34:33.675Z,22.80
2023-03-16T10:38:43.098Z,19.00
2023-03-16T10:42:48.017Z,17.07
2023-03-16T10:47:02.106Z,15.13
2023-03-16T10:51:10.208Z,14.40
2023-03-16T10:55:21.249Z,13.70
2023-03-16T10:59:34.469Z,15.80
2023-03-16T11:03:43.481Z,15.70
2023-03-16T11:07:51.297Z,13.83
2023-03-16T11:11:57.423Z,18.73
2023-03-16T11:16:06.239Z,15.13
2023-03-16T11:20:17.694Z,13.17
2023-03-16T11:24:27.148Z,16.63
2023-03-16T11:28:38.075Z,12.37
2023-03-16T11:32:49.110Z,14.03
2023-03-16T11:36:56.162Z,14.70
2023-03-16T11:41:06.252Z,13.67
2023-03-16T11:45:20.563Z,14.57
2023-03-16T11:49:58.729Z,19.27
2023-03-16T11:54:11.122Z,13.43
2023-03-16T11:58:41.845Z,13.27
2023-03-16T12:03:00.217Z,13.43
2023-03-16T12:07:22.872Z,13.10
2023-03-16T12:11:29.614Z,13.47
2023-03-16T12:15:42.182Z,12.70
2023-03-16T12:19:51.165Z,17.20
2023-03-16T12:24:00.500Z,11.53
2023-03-16T12:28:08.016Z,12.47
2023-03-16T12:32:13.618Z,12.87
2023-03-16T12:36:39.248Z,9.87
2023-03-16T12:40:52.098Z,10.77
2023-03-16T12:44:58.226Z,11.35
2023-03-16T12:49:04.480Z,12.07
2023-03-16T12:53:07.561Z,9.65
2023-03-16T12:57:18.614Z,11.45
2023-03-16T13:01:28.392Z,11.23
2023-03-16T13:05:38.160Z,11.13
2023-03-16T13:09:49.164Z,12.53
2023-03-16T13:14:08.382Z,8.32
2023-03-16T13:18:27.870Z,7.05
2023-03-16T13:22:32.764Z,7.10
2023-03-16T13:26:44.304Z,10.10
2023-03-16T13:30:53.554Z,11.20
2023-03-16T13:35:03.618Z,8.83
2023-03-16T13:39:13.849Z,6.97
2023-03-16T13:43:17.766Z,8.27
2023-03-16T13:47:26.701Z,7.72
2023-03-16T13:51:35.044Z,7.07
2023-03-16T13:55:41.053Z,7.43
2023-03-16T13:59:45.719Z,8.38
2023-03-16T14:03:53.720Z,9.88
2023-03-16T14:08:00.599Z,7.15
2023-03-16T14:12:03.860Z,7.28
2023-03-16T14:16:14.836Z,6.65
2023-03-16T14:20:23.329Z,6.43
2023-03-16T14:24:33.109Z,8.05
2023-03-16T14:28:36.410Z,7.70
2023-03-16T14:32:40.174Z,5.60
2023-03-16T14:36:44.658Z,5.80
2023-03-16T14:40:57.774Z,6.82
2023-03-16T14:45:04.799Z,4.43
2023-03-16T14:49:15.321Z,11.50
2023-03-16T14:53:20.174Z,5.50
2023-03-16T14:57:23.276Z,5.13
2023-03-16T15:01:27.082Z,7.25
2023-03-16T15:05:37.011Z,6.70
2023-03-16T15:09:46.130Z,4.40
2023-03-16T15:14:04.586Z,4.40
2023-03-16T15:18:09.019Z,7.35
2023-03-16T15:22:13.308Z,5.15
2023-03-16T15:26:26.492Z,5.03
2023-03-16T15:30:34.884Z,3.95
2023-03-16T15:34:40.366Z,9.18
2023-03-16T15:47:29.836Z,7.72
2023-03-16T15:53:01.095Z,4.75
2023-03-16T15:57:07.104Z,7.93
2023-03-16T16:01:18.200Z,4.57
2023-03-16T16:05:23.472Z,4.43
2023-03-16T16:09:31.676Z,4.53
2023-03-16T16:13:44.262Z,5.30
2023-03-16T16:18:13.252Z,3.88
2023-03-16T16:22:13.108Z,10.50
2023-03-16T16:26:34.346Z,5.30
2023-03-16T16:30:45.459Z,4.88
2023-03-16T16:35:03.481Z,4.03
2023-03-16T16:39:07.713Z,4.37
2023-03-16T16:43:20.085Z,4.13
2023-03-16T16:47:23.261Z,4.38
2023-03-16T16:51:28.930Z,3.47
2023-03-16T16:55:35.367Z,5.40
2023-03-16T16:59:39.751Z,8.63
2023-03-16T17:03:46.235Z,5.25
2023-03-16T17:07:53.306Z,10.85
2023-03-16T17:11:58.852Z,5.60
2023-03-16T17:16:06.344Z,5.90
2023-03-16T17:20:23.075Z,8.75
2023-03-16T17:24:29.781Z,7.00
2023-03-16T17:28:38.837Z,6.97
2023-03-16T17:32:45.797Z,5.27
2023-03-16T17:36:51.677Z,7.27
2023-03-16T17:40:58.676Z,6.93
2023-03-16T17:45:01.882Z,6.17
2023-03-16T17:49:15.139Z,5.37
2023-03-16T17:53:21.725Z,3.90
2023-03-16T17:57:30.666Z,5.23
2023-03-16T18:01:34.781Z,5.53
2023-03-16T18:05:39.417Z,6.40
2023-03-16T18:09:43.036Z,31.47
2023-03-16T18:13:46.922Z,41.93
2023-03-16T18:17:50.971Z,77.27
2023-03-16T18:21:57.527Z,23.07
2023-03-16T18:26:03.539Z,20.10
2023-03-16T18:30:11.270Z,19.13
2023-03-16T18:34:22.705Z,30.23
2023-03-16T18:38:31.560Z,19.10
2023-03-16T18:42:34.848Z,45.27
2023-03-16T18:46:39.152Z,15.57
2023-03-16T18:50:43.768Z,8.33
2023-03-16T18:54:51.396Z,13.10
2023-03-16T18:58:55.372Z,7.63
2023-03-16T19:03:01.422Z,9.93
2023-03-16T19:07:11.091Z,9.63
2023-03-16T19:11:19.237Z,11.30
2023-03-16T19:15:24.619Z,10.43
2023-03-16T19:19:28.273Z,8.03
2023-03-16T19:23:36.530Z,6.50
2023-03-16T19:27:43.785Z,10.77
2023-03-16T19:31:46.911Z,3.70
2023-03-16T19:35:52.455Z,9.23
2023-03-16T19:39:56.042Z,36.47
2023-03-16T19:44:12.328Z,52.93
2023-03-16T19:48:23.644Z,26.73
2023-03-16T19:52:31.385Z,10.73
2023-03-16T19:56:34.522Z,9.40
2023-03-16T20:00:39.030Z,8.20
2023-03-16T20:04:42.397Z,6.77
2023-03-16T20:08:46.789Z,7.93
2023-03-16T20:12:53.674Z,6.30
2023-03-16T20:16:58.266Z,6.20
2023-03-16T20:21:03.650Z,6.93
2023-03-16T20:25:10.350Z,9.53
2023-03-16T20:29:23.220Z,4.93
2023-03-16T20:33:31.642Z,4.27
2023-03-16T20:37:35.683Z,4.50
2023-03-16T20:41:39.425Z,5.57
2023-03-16T20:45:43.268Z,5.90
2023-03-16T20:49:50.663Z,6.80
2023-03-16T20:53:59.475Z,6.07
2023-03-16T20:58:04.788Z,4.47
2023-03-16T21:02:25.474Z,7.43
2023-03-16T21:06:33.815Z,4.83
2023-03-16T21:10:37.078Z,6.03
2023-03-16T21:14:42.505Z,5.13
2023-03-16T21:18:45.763Z,4.97
2023-03-16T21:22:52.772Z,6.10
2023-03-16T21:27:02.147Z,4.23
2023-03-16T21:31:06.760Z,6.13
2023-03-16T21:35:14.442Z,4.83
2023-03-16T21:39:25.436Z,5.40
2023-03-16T21:43:28.965Z,5.60
2023-03-16T21:47:38.419Z,4.90
2023-03-16T21:51:44.182Z,5.03
2023-03-16T21:55:49.548Z,5.17
2023-03-16T21:59:52.583Z,4.13
2023-03-16T22:03:58.566Z,8.33
2023-03-16T22:08:03.213Z,5.37
2023-03-16T22:12:10.800Z,3.80
2023-03-16T22:16:20.213Z,6.17
2023-03-16T22:20:31.389Z,3.50
2023-03-16T22:24:36.496Z,3.97
2023-03-16T22:28:42.445Z,5.73
2023-03-16T22:32:47.896Z,4.07
2023-03-16T22:36:51.064Z,5.27
2023-03-16T22:40:54.305Z,6.50
2023-03-16T22:45:01.467Z,3.50
2023-03-16T22:49:11.446Z,4.53
2023-03-16T22:53:21.227Z,5.57
2023-03-16T22:57:24.647Z,5.50
2023-03-16T23:01:33.672Z,6.27
2023-03-16T23:05:36.746Z,5.67
2023-03-16T23:09:42.249Z,4.13
2023-03-16T23:13:45.364Z,3.10
2023-03-16T23:17:56.120Z,4.60
2023-03-16T23:22:03.834Z,7.17
2023-03-16T23:26:16.405Z,5.33
2023-03-16T23:30:23.377Z,5.80
2023-03-16T23:34:27.846Z,5.17
2023-03-16T23:38:30.900Z,7.63
2023-03-16T23:42:36.655Z,5.80
2023-03-16T23:46:39.683Z,7.23
2023-03-16T23:50:45.311Z,7.83
2023-03-16T23:54:50.209Z,4.20
2023-03-16T23:58:53.237Z,6.03
